createdAt,value
2019-05-25T00:00:05.172Z,99066.14
2019-05-25T00:03:11.944Z,99069.76
2019-05-25T00:06:17.955Z,99060.31
2019-05-25T00:09:23.914Z,99072.31
2019-05-25T00:12:29.759Z,99074.14
2019-05-25T00:15:36.672Z,99072.42
2019-05-25T00:18:42.423Z,99073.84
2019-05-25T00:21:48.231Z,99066.25
2019-05-25T00:24:54.003Z,99078.01
2019-05-25T00:27:59.861Z,99080.67
2019-05-25T00:31:05.796Z,99084.60
2019-05-25T00:34:11.910Z,99084.20
2019-05-25T00:37:17.983Z,99089.73
2019-05-25T00:40:23.737Z,99087.37
2019-05-25T00:43:29.670Z,99086.47
2019-05-25T00:46:35.530Z,99089.41
2019-05-25T00:49:41.294Z,99085.15
2019-05-25T00:52:47.125Z,99092.47
2019-05-25T00:55:52.889Z,99085.05
2019-05-25T00:58:58.628Z,99085.84
2019-05-25T01:02:04.650Z,99080.77
2019-05-25T01:05:11.041Z,99079.25
2019-05-25T01:08:16.828Z,99086.16
2019-05-25T01:11:22.612Z,99084.44
2019-05-25T01:14:28.369Z,99086.47
2019-05-25T01:17:34.346Z,99085.23
2019-05-25T01:20:40.166Z,99086.37
2019-05-25T01:23:45.910Z,99086.97
2019-05-25T01:26:52.145Z,99088.10
2019-05-25T01:29:57.917Z,99088.92
2019-05-25T01:33:03.682Z,99091.74
2019-05-25T01:36:09.447Z,99093.47
2019-05-25T01:39:15.241Z,99092.03
2019-05-25T01:42:21.354Z,99098.66
2019-05-25T01:45:27.321Z,99094.27
2019-05-25T01:48:34.157Z,99098.12
2019-05-25T01:51:39.928Z,99097.09
2019-05-25T01:54:59.073Z,99093.58
2019-05-25T01:57:54.158Z,99094.77
2019-05-25T02:00:59.904Z,99109.03
2019-05-25T02:04:05.799Z,99096.31
2019-05-25T02:07:11.681Z,99099.66
2019-05-25T02:10:17.647Z,99097.62
2019-05-25T02:13:23.399Z,99101.77
2019-05-25T02:16:29.216Z,99108.68
2019-05-25T02:19:34.997Z,99112.02
2019-05-25T02:22:40.847Z,99113.88
2019-05-25T02:25:46.596Z,99112.34
2019-05-25T02:28:52.452Z,99111.36
2019-05-25T02:31:58.226Z,99110.53
2019-05-25T02:35:04.395Z,99124.47
2019-05-25T02:38:10.154Z,99124.95
2019-05-25T02:41:16.004Z,99126.70
2019-05-25T02:44:21.803Z,99135.42
2019-05-25T02:47:27.543Z,99139.89
2019-05-25T02:50:33.298Z,99138.57
2019-05-25T02:53:39.029Z,99135.19
2019-05-25T02:56:44.806Z,99136.75
2019-05-25T02:59:51.243Z,99144.67
2019-05-25T03:02:57.076Z,99146.41
2019-05-25T03:06:03.667Z,99152.28
2019-05-25T03:09:09.835Z,99153.89
2019-05-25T03:12:15.815Z,99157.47
2019-05-25T03:15:21.620Z,99157.78
2019-05-25T03:18:27.422Z,99153.05
2019-05-25T03:21:33.223Z,99149.55
2019-05-25T03:24:39.103Z,99149.83
2019-05-25T03:27:44.837Z,99156.28
2019-05-25T03:30:50.671Z,99149.36
2019-05-25T03:33:56.430Z,99164.55
2019-05-25T03:37:02.321Z,99165.92
2019-05-25T03:40:09.086Z,99178.95
2019-05-25T03:43:14.932Z,99169.19
2019-05-25T03:46:20.729Z,99175.49
2019-05-25T03:49:26.523Z,99178.77
2019-05-25T03:52:32.279Z,99174.58
2019-05-25T03:55:38.074Z,99173.09
2019-05-25T03:58:43.837Z,99177.03
2019-05-25T04:01:49.716Z,99176.31
2019-05-25T04:04:55.578Z,99180.70
2019-05-25T04:08:01.423Z,99178.45
2019-05-25T04:11:07.351Z,99182.72
2019-05-25T04:14:13.150Z,99177.44
2019-05-25T04:17:19.003Z,99179.81
2019-05-25T04:20:25.769Z,99183.09
2019-05-25T04:23:31.580Z,99176.34
2019-05-25T04:26:37.311Z,99171.20
2019-05-25T04:29:43.161Z,99178.13
2019-05-25T04:32:48.938Z,99170.41
2019-05-25T04:35:54.698Z,99176.97
2019-05-25T04:39:00.528Z,99174.88
2019-05-25T04:42:06.410Z,99174.88
2019-05-25T04:45:12.445Z,99175.42
2019-05-25T04:48:28.551Z,99186.70
2019-05-25T04:51:37.703Z,99188.33
2019-05-25T04:54:45.254Z,99189.23
2019-05-25T04:57:51.087Z,99190.51
2019-05-25T05:00:56.864Z,99194.19
2019-05-25T05:04:03.930Z,99197.69
2019-05-25T05:07:09.665Z,99191.83
2019-05-25T05:10:15.734Z,99196.09
2019-05-25T05:13:21.483Z,99196.66
2019-05-25T05:16:27.310Z,99201.59
2019-05-25T05:19:33.096Z,99207.58
2019-05-25T05:22:38.888Z,99202.24
2019-05-25T05:25:44.672Z,99205.95
2019-05-25T05:28:50.468Z,99216.42
2019-05-25T05:31:56.298Z,99210.74
2019-05-25T05:35:02.277Z,99213.94
2019-05-25T05:38:08.173Z,99218.50
2019-05-25T05:41:16.202Z,99214.82
2019-05-25T05:44:23.270Z,99219.32
2019-05-25T05:47:31.832Z,99214.05
2019-05-25T05:50:39.974Z,99215.67
2019-05-25T05:53:46.994Z,99213.97
2019-05-25T05:56:52.723Z,99212.81
2019-05-25T05:59:58.571Z,99213.88
2019-05-25T06:03:04.528Z,99218.25
2019-05-25T06:06:10.354Z,99222.27
2019-05-25T06:09:16.105Z,99223.33
2019-05-25T06:12:21.914Z,99218.77
2019-05-25T06:15:27.760Z,99227.92
2019-05-25T06:21:37.808Z,99226.21
2019-05-25T06:24:43.573Z,99220.12
2019-05-25T06:27:49.326Z,99219.66
2019-05-25T06:30:55.142Z,99209.89
2019-05-25T06:34:00.994Z,99214.27
2019-05-25T06:37:06.831Z,99218.63
2019-05-25T06:40:12.910Z,99214.48
2019-05-25T06:43:18.739Z,99209.69
2019-05-25T06:46:24.702Z,99207.67
2019-05-25T06:49:30.490Z,99199.91
2019-05-25T06:52:36.324Z,99210.81
2019-05-25T06:55:43.200Z,99209.99
2019-05-25T06:58:49.074Z,99212.58
2019-05-25T07:01:54.966Z,99214.16
2019-05-25T07:05:00.787Z,99216.11
2019-05-25T07:08:06.620Z,99220.12
2019-05-25T07:11:12.532Z,99218.72
2019-05-25T07:14:18.284Z,99214.42
2019-05-25T07:17:24.174Z,99213.34
2019-05-25T07:20:29.920Z,99218.16
2019-05-25T07:23:35.697Z,99228.27
2019-05-25T07:26:43.198Z,99224.08
2019-05-25T07:29:49.264Z,99220.63
2019-05-25T07:32:55.796Z,99227.39
2019-05-25T07:36:05.554Z,99225.14
2019-05-25T07:39:09.383Z,99221.00
2019-05-25T07:42:15.122Z,99222.75
2019-05-25T07:45:21.151Z,99228.06
2019-05-25T07:48:26.908Z,99221.95
2019-05-25T07:51:32.687Z,99216.14
2019-05-25T07:54:38.444Z,99222.27
2019-05-25T07:57:44.324Z,99227.71
2019-05-25T08:00:50.056Z,99216.07
2019-05-25T08:03:55.821Z,99225.30
2019-05-25T08:07:01.705Z,99221.00
2019-05-25T08:10:08.163Z,99222.56
2019-05-25T08:13:14.975Z,99212.73
2019-05-25T08:16:20.729Z,99222.02
2019-05-25T08:19:26.542Z,99222.19
2019-05-25T08:22:32.520Z,99232.77
2019-05-25T08:25:38.399Z,99234.53
2019-05-25T08:28:44.273Z,99228.79
2019-05-25T08:31:50.062Z,99226.74
2019-05-25T08:34:56.335Z,99226.67
2019-05-25T08:38:02.142Z,99234.91
2019-05-25T08:41:07.876Z,99235.85
2019-05-25T08:44:14.794Z,99235.62
2019-05-25T08:47:20.675Z,99240.63
2019-05-25T08:50:37.755Z,99248.36
2019-05-25T08:53:41.428Z,99243.66
2019-05-25T08:56:42.610Z,99245.05
2019-05-25T08:59:49.986Z,99244.52
2019-05-25T09:02:55.723Z,99247.73
2019-05-25T09:06:01.520Z,99260.08
2019-05-25T09:09:08.464Z,99256.53
2019-05-25T09:12:14.307Z,99263.55
2019-05-25T09:15:20.138Z,99252.36
2019-05-25T09:18:25.938Z,99254.47
2019-05-25T09:21:32.773Z,99254.44
2019-05-25T09:24:38.511Z,99255.63
2019-05-25T09:27:44.348Z,99248.66
2019-05-25T09:30:50.132Z,99252.63
2019-05-25T09:33:55.904Z,99254.03
2019-05-25T09:37:01.680Z,99251.28
2019-05-25T09:40:08.734Z,99251.88
2019-05-25T09:43:14.565Z,99257.95
2019-05-25T09:46:20.359Z,99256.95
2019-05-25T09:49:26.172Z,99252.10
2019-05-25T09:52:31.916Z,99250.67
2019-05-25T09:55:37.696Z,99257.28
2019-05-25T09:58:43.505Z,99251.08
2019-05-25T10:01:49.288Z,99258.05
2019-05-25T10:04:55.042Z,99252.36
2019-05-25T10:08:00.797Z,99261.50
2019-05-25T10:11:06.708Z,99254.30
2019-05-25T10:14:12.522Z,99247.08
2019-05-25T10:17:18.268Z,99245.20
2019-05-25T10:20:24.226Z,99250.27
2019-05-25T10:23:29.962Z,99246.50
2019-05-25T10:26:35.829Z,99243.83
2019-05-25T10:29:41.529Z,99245.71
2019-05-25T10:32:47.331Z,99243.83
2019-05-25T10:35:53.145Z,99245.95
2019-05-25T10:38:59.061Z,99240.84
2019-05-25T10:42:04.908Z,99228.25
2019-05-25T10:45:11.277Z,99221.55
2019-05-25T10:48:17.270Z,99229.80
2019-05-25T10:51:23.286Z,99227.41
2019-05-25T10:54:29.032Z,99218.73
2019-05-25T10:57:35.062Z,99217.13
2019-05-25T11:00:41.101Z,99214.26
2019-05-25T11:03:46.889Z,99219.73
2019-05-25T11:06:52.700Z,99214.45
2019-05-25T11:09:58.499Z,99217.13
2019-05-25T11:13:04.497Z,99212.88
2019-05-25T11:16:10.311Z,99210.58
2019-05-25T11:19:16.115Z,99210.48
2019-05-25T11:22:21.863Z,99209.05
2019-05-25T11:25:27.760Z,99194.44
2019-05-25T11:28:33.518Z,99196.22
2019-05-25T11:31:39.316Z,99190.86
2019-05-25T11:34:45.157Z,99195.41
2019-05-25T11:37:51.129Z,99191.59
2019-05-25T11:40:56.990Z,99190.52
2019-05-25T11:44:02.814Z,99184.92
2019-05-25T11:47:08.622Z,99189.52
2019-05-25T11:50:15.023Z,99185.91
2019-05-25T11:53:20.893Z,99175.45
2019-05-25T11:56:26.679Z,99182.72
2019-05-25T11:59:32.447Z,99177.02
2019-05-25T12:02:38.169Z,99180.45
2019-05-25T12:05:45.550Z,99180.95
2019-05-25T12:08:55.398Z,99186.97
2019-05-25T12:12:01.205Z,99179.46
2019-05-25T12:15:40.837Z,99169.50
2019-05-25T12:18:41.765Z,99175.73
2019-05-25T12:21:47.537Z,99173.38
2019-05-25T12:24:53.381Z,99179.30
2019-05-25T12:28:01.685Z,99180.91
2019-05-25T12:31:16.259Z,99178.95
2019-05-25T12:34:23.008Z,99180.58
2019-05-25T12:37:29.067Z,99180.28
2019-05-25T12:40:34.789Z,99190.28
2019-05-25T12:43:40.571Z,99176.91
2019-05-25T12:46:47.516Z,99190.61
2019-05-25T12:49:53.383Z,99187.33
2019-05-25T12:52:59.166Z,99183.25
2019-05-25T12:56:08.452Z,99184.73
2019-05-25T12:59:18.798Z,99174.23
2019-05-25T13:02:25.847Z,99182.59
2019-05-25T13:05:34.881Z,99177.02
2019-05-25T13:08:43.758Z,99183.02
2019-05-25T13:11:48.485Z,99174.66
2019-05-25T13:14:56.042Z,99187.14
2019-05-25T13:18:02.973Z,99186.36
2019-05-25T13:21:08.753Z,99192.37
2019-05-25T13:24:14.477Z,99192.75
2019-05-25T13:27:23.104Z,99192.45
2019-05-25T13:30:28.887Z,99197.66
2019-05-25T13:33:46.063Z,99194.35
2019-05-25T13:36:51.821Z,99178.31
2019-05-25T13:39:57.592Z,99191.31
2019-05-25T13:43:04.910Z,99199.30
2019-05-25T13:46:10.819Z,99195.63
2019-05-25T13:49:20.247Z,99194.63
2019-05-25T13:52:27.543Z,99187.43
2019-05-25T13:55:33.296Z,99188.53
2019-05-25T13:58:39.355Z,99189.11
2019-05-25T14:01:45.046Z,99185.58
2019-05-25T14:04:50.839Z,99195.28
2019-05-25T14:07:56.731Z,99184.66
2019-05-25T14:11:04.154Z,99190.39
2019-05-25T14:14:10.167Z,99192.03
2019-05-25T14:17:16.035Z,99194.05
2019-05-25T14:20:23.496Z,99192.72
2019-05-25T14:23:29.284Z,99192.89
2019-05-25T14:26:35.021Z,99188.08
2019-05-25T14:29:40.786Z,99197.03
2019-05-25T14:32:46.667Z,99200.67
2019-05-25T14:35:52.485Z,99205.33
2019-05-25T14:38:58.333Z,99203.23
2019-05-25T14:42:04.307Z,99201.15
2019-05-25T14:45:10.735Z,99200.63
2019-05-25T14:48:16.614Z,99203.56
2019-05-25T14:51:22.402Z,99201.65
2019-05-25T14:54:28.182Z,99210.81
2019-05-25T14:57:33.978Z,99205.45
2019-05-25T15:00:42.189Z,99213.76
2019-05-25T15:04:41.879Z,99205.35
2019-05-25T15:07:30.529Z,99209.40
2019-05-25T15:10:36.475Z,99208.39
2019-05-25T15:13:47.268Z,99212.95
2019-05-25T15:16:53.232Z,99208.09
2019-05-25T15:19:59.062Z,99215.90
2019-05-25T15:23:04.946Z,99222.84
2019-05-25T15:26:10.911Z,99213.22
2019-05-25T15:29:16.647Z,99219.92
2019-05-25T15:32:22.441Z,99220.73
2019-05-25T15:35:28.311Z,99223.96
2019-05-25T15:38:34.224Z,99217.00
2019-05-25T15:41:40.119Z,99223.95
2019-05-25T15:44:46.239Z,99225.84
2019-05-25T15:47:52.105Z,99224.43
2019-05-25T15:51:02.323Z,99218.58
2019-05-25T15:54:10.636Z,99228.39
2019-05-25T15:57:16.870Z,99227.77
2019-05-25T16:00:25.987Z,99238.08
2019-05-25T16:03:31.767Z,99233.78
2019-05-25T16:06:37.701Z,99242.64
2019-05-25T16:09:51.762Z,99243.96
2019-05-25T16:12:58.620Z,99247.11
2019-05-25T16:16:04.641Z,99251.94
2019-05-25T16:19:10.465Z,99252.60
2019-05-25T16:22:19.277Z,99253.86
2019-05-25T16:25:25.064Z,99258.17
2019-05-25T16:28:30.934Z,99260.45
2019-05-25T16:31:39.898Z,99258.50
2019-05-25T16:34:45.751Z,99258.78
2019-05-25T16:37:51.969Z,99260.80
2019-05-25T16:41:00.916Z,99258.94
2019-05-25T16:44:06.775Z,99270.75
2019-05-25T16:47:12.720Z,99268.52
2019-05-25T16:50:43.761Z,99271.84
2019-05-25T16:53:49.575Z,99274.53
2019-05-25T16:56:58.526Z,99274.92
2019-05-25T17:00:08.043Z,99279.13
2019-05-25T17:03:27.402Z,99281.17
2019-05-25T17:06:24.480Z,99275.78
2019-05-25T17:09:30.314Z,99272.75
2019-05-25T17:12:53.802Z,99286.93
2019-05-25T17:15:59.876Z,99279.36
2019-05-25T17:19:05.798Z,99280.00
2019-05-25T17:22:21.510Z,99282.06
2019-05-25T17:25:29.113Z,99280.88
2019-05-25T17:28:34.879Z,99283.27
2019-05-25T17:31:43.247Z,99285.69
2019-05-25T17:34:52.034Z,99286.13
2019-05-25T17:37:58.521Z,99287.59
2019-05-25T17:41:40.356Z,99280.90
2019-05-25T17:44:46.202Z,99285.30
2019-05-25T17:47:51.926Z,99290.37
2019-05-25T17:51:00.905Z,99293.64
2019-05-25T17:54:08.695Z,99297.83
2019-05-25T17:57:22.013Z,99300.16
2019-05-25T18:00:50.348Z,99299.42
2019-05-25T18:04:06.720Z,99303.09
2019-05-25T18:07:22.280Z,99305.95
2019-05-25T18:10:56.721Z,99298.63
2019-05-25T18:14:04.768Z,99302.08
2019-05-25T18:17:10.595Z,99311.31
2019-05-25T18:20:16.723Z,99310.78
2019-05-25T18:23:25.225Z,99314.45
2019-05-25T18:26:31.086Z,99324.13
2019-05-25T18:29:36.837Z,99331.02
2019-05-25T18:32:54.197Z,99338.42
2019-05-25T18:35:59.985Z,99345.99
2019-05-25T18:39:07.702Z,99350.87
2019-05-25T18:42:13.535Z,99352.80
2019-05-25T18:45:19.430Z,99357.22
2019-05-25T18:48:25.224Z,99357.58
2019-05-25T18:51:31.088Z,99365.34
2019-05-25T18:54:36.865Z,99364.45
2019-05-25T18:57:44.270Z,99369.31
2019-05-25T19:00:50.026Z,99369.61
2019-05-25T19:03:55.921Z,99380.14
2019-05-25T19:07:01.788Z,99377.86
2019-05-25T19:10:18.080Z,99385.64
2019-05-25T19:13:24.097Z,99389.45
2019-05-25T19:16:29.993Z,99386.27
2019-05-25T19:19:35.801Z,99387.50
2019-05-25T19:22:41.558Z,99398.37
2019-05-25T19:25:47.434Z,99404.13
2019-05-25T19:28:53.202Z,99410.88
2019-05-25T19:31:59.140Z,99414.17
2019-05-25T19:35:05.757Z,99422.73
2019-05-25T19:38:11.812Z,99422.36
2019-05-25T19:41:17.599Z,99424.15
2019-05-25T19:44:23.500Z,99424.87
2019-05-25T19:47:29.434Z,99428.77
2019-05-25T19:50:37.407Z,99431.73
2019-05-25T19:53:43.180Z,99434.01
2019-05-25T19:56:48.955Z,99436.16
2019-05-25T19:59:54.811Z,99430.51
2019-05-25T20:03:00.600Z,99426.92
2019-05-25T20:06:06.570Z,99429.70
2019-05-25T20:09:13.113Z,99426.63
2019-05-25T20:13:12.470Z,99427.31
2019-05-25T20:16:18.299Z,99430.25
2019-05-25T20:19:29.538Z,99432.64
2019-05-25T20:22:35.707Z,99434.80
2019-05-25T20:25:41.530Z,99438.23
2019-05-25T20:28:50.549Z,99445.33
2019-05-25T20:31:54.869Z,99438.86
2019-05-25T20:35:03.149Z,99450.64
2019-05-25T20:38:09.241Z,99447.69
2019-05-25T20:41:17.733Z,99450.09
2019-05-25T20:44:25.065Z,99453.84
2019-05-25T20:47:38.002Z,99458.10
2019-05-25T20:50:43.909Z,99455.68
2019-05-25T20:53:49.649Z,99457.88
2019-05-25T20:57:09.984Z,99461.51
2019-05-25T21:00:17.555Z,99467.88
2019-05-25T21:03:23.355Z,99462.88
2019-05-25T21:06:29.217Z,99467.67
2019-05-25T21:09:35.040Z,99468.76
2019-05-25T21:12:40.963Z,99469.06
2019-05-25T21:15:50.473Z,99475.70
2019-05-25T21:18:56.368Z,99482.42
2019-05-25T21:22:02.210Z,99480.27
2019-05-25T21:25:09.971Z,99482.30
2019-05-25T21:28:15.668Z,99489.95
2019-05-25T21:31:23.920Z,99491.70
2019-05-25T21:34:30.091Z,99483.36
2019-05-25T21:37:35.911Z,99488.00
2019-05-25T21:40:41.782Z,99488.13
2019-05-25T21:43:47.491Z,99483.69
2019-05-25T21:46:53.301Z,99479.50
2019-05-25T21:49:59.045Z,99480.30
2019-05-25T21:53:05.101Z,99489.61
2019-05-25T21:56:10.916Z,99483.81
2019-05-25T21:59:16.676Z,99490.46
2019-05-25T22:02:22.453Z,99491.47
2019-05-25T22:05:30.761Z,99496.39
2019-05-25T22:08:35.863Z,99492.22
2019-05-25T22:11:41.694Z,99486.14
2019-05-25T22:14:47.410Z,99485.28
2019-05-25T22:17:53.158Z,99490.45
2019-05-25T22:20:58.893Z,99485.72
2019-05-25T22:24:04.837Z,99492.61
2019-05-25T22:27:10.899Z,99496.59
2019-05-25T22:30:16.912Z,99491.66
2019-05-25T22:33:22.658Z,99490.47
2019-05-25T22:36:39.765Z,99491.79
2019-05-25T22:39:35.966Z,99496.77
2019-05-25T22:42:41.859Z,99493.99
2019-05-25T22:45:47.593Z,99503.80
2019-05-25T22:48:53.381Z,99501.08
2019-05-25T22:51:59.156Z,99503.74
2019-05-25T22:55:05.304Z,99496.80
2019-05-25T22:58:11.098Z,99489.27
2019-05-25T23:01:16.871Z,99498.47
2019-05-25T23:04:22.641Z,99510.69
2019-05-25T23:07:28.426Z,99510.55
2019-05-25T23:10:34.196Z,99518.74
2019-05-25T23:13:40.074Z,99512.89
2019-05-25T23:16:45.947Z,99505.63
2019-05-25T23:19:51.742Z,99513.35
2019-05-25T23:22:57.492Z,99515.06
2019-05-25T23:26:03.235Z,99521.41
2019-05-25T23:29:09.037Z,99520.24
2019-05-25T23:32:14.811Z,99513.50
2019-05-25T23:35:20.681Z,99509.41
2019-05-25T23:38:26.547Z,99513.70
2019-05-25T23:41:32.421Z,99519.21
2019-05-25T23:44:38.233Z,99511.33
2019-05-25T23:47:43.978Z,99508.88
2019-05-25T23:50:49.748Z,99510.86
2019-05-25T23:53:55.467Z,99513.85
2019-05-25T23:57:01.316Z,99514.36
